Time;durP1;ratioP1;P1;durP2;ratioP2;P2;SDS_P1;SDS_P2;PMS_P1;PMS_P2;Temp;Humidity;BMP_temperature;BMP_pressure;BME280_temperature;BME280_humidity;BME280_pressure;Samples;Min_cycle;Max_cycle;Signal;HPM_P1;HPM_P2
2022/06/21 03:59:08;;;;;;;4.18;1.38;;;15.40;1.00;;;;;;6278573;22;20020;-93
2022/06/21 04:11:26;;;;;;;3.75;1.92;;;15.30;1.00;;;;;;6248450;23;20060;-91
2022/06/21 13:44:44;;;;;;;3.60;1.50;;;22.00;1.00;;;;;;6221676;22;20032;-89
2022/06/21 13:47:29;;;;;;;2.22;1.25;;;21.80;1.00;;;;;;6164968;23;20451;-90
2022/06/21 13:50:24;;;;;;;6.25;1.58;;;22.00;1.00;;;;;;6189167;23;20040;-87
2022/06/21 13:53:13;;;;;;;3.50;1.70;;;22.00;1.00;;;;;;6189142;23;20025;-88
2022/06/21 13:55:56;;;;;;;3.22;1.60;;;22.10;1.00;;;;;;6189317;23;20017;-87
2022/06/21 16:12:46;;;;;;;1.73;1.00;;;25.80;1.00;;;;;;6238431;22;20452;-89
2022/06/21 16:15:25;;;;;;;2.75;1.20;;;25.40;1.00;;;;;;6165860;23;20021;-88
2022/06/21 16:18:11;;;;;;;1.88;1.10;;;25.70;1.00;;;;;;6165367;23;20416;-87
2022/06/21 16:20:42;;;;;;;4.35;1.67;;;25.90;1.00;;;;;;6190294;23;20075;-87
2022/06/21 16:23:21;;;;;;;2.38;1.77;;;26.00;1.00;;;;;;6216863;23;20307;-88
2022/06/21 16:26:09;;;;;;;3.90;1.48;;;26.00;1.00;;;;;;6190212;23;20456;-88
2022/06/21 16:28:48;;;;;;;2.33;1.20;;;26.00;1.00;;;;;;6217592;23;20039;-88
2022/06/21 16:34:17;;;;;;;3.55;1.35;;;26.20;1.00;;;;;;6190461;23;20012;-87
2022/06/21 16:37:05;;;;;;;5.38;2.10;;;26.10;1.00;;;;;;6190213;23;20020;-87
2022/06/21 16:43:32;;;;;;;5.72;1.58;;;26.40;1.00;;;;;;6189860;23;20024;-87
2022/06/21 16:46:21;;;;;;;2.80;1.42;;;26.40;1.00;;;;;;6190206;23;20023;-89
2022/06/21 16:49:39;;;;;;;2.45;1.20;;;26.50;1.00;;;;;;6165534;23;20448;-87
2022/06/21 16:52:39;;;;;;;2.00;0.90;;;26.60;1.00;;;;;;6128338;23;20020;-87
2022/06/21 16:55:13;;;;;;;1.45;1.05;;;26.80;1.00;;;;;;6190137;23;20044;-87
2022/06/21 16:57:42;;;;;;;1.67;1.10;;;26.90;1.00;;;;;;6190637;23;20024;-87
2022/06/21 17:00:24;;;;;;;2.28;1.10;;;27.00;1.00;;;;;;6216617;23;20013;-86
2022/06/21 17:02:57;;;;;;;2.65;1.25;;;26.80;1.00;;;;;;6190428;23;20045;-87
2022/06/21 17:05:34;;;;;;;3.30;1.38;;;26.60;1.00;;;;;;6190253;23;20016;-88
2022/06/21 17:08:01;;;;;;;3.15;1.27;;;26.40;1.00;;;;;;6190674;23;20012;-88
2022/06/21 17:13:28;;;;;;;3.15;1.48;;;25.30;1.00;;;;;;6207569;22;20411;-88
2022/06/21 17:16:13;;;;;;;2.60;1.20;;;25.30;1.00;;;;;;6220220;23;20407;-86
2022/06/21 17:18:56;;;;;;;2.00;0.80;;;25.30;1.00;;;;;;6246624;23;20024;-87
2022/06/21 17:21:27;;;;;;;;;;;25.10;1.00;;;;;;6247515;23;20027;-87
2022/06/21 17:24:18;;;;;;;5.03;1.60;;;25.00;1.00;;;;;;6246822;22;19915;-87
2022/06/21 17:26:56;;;;;;;3.15;1.10;;;24.80;1.00;;;;;;6195653;23;20422;-86
2022/06/21 17:29:57;;;;;;;3.90;1.20;;;24.60;1.00;;;;;;6246388;23;20504;-86
2022/06/21 17:32:33;;;;;;;2.22;1.13;;;24.70;1.00;;;;;;6219418;23;20012;-86
2022/06/21 17:35:19;;;;;;;2.72;1.30;;;24.50;1.00;;;;;;6220642;23;20070;-86
2022/06/21 17:38:14;;;;;;;2.97;1.52;;;24.40;1.00;;;;;;6219733;23;20042;-88
2022/06/21 17:41:11;;;;;;;3.25;1.23;;;24.20;1.00;;;;;;6220377;23;20019;-86
2022/06/21 17:44:13;;;;;;;3.38;1.00;;;24.10;1.00;;;;;;6245971;22;20036;-86
2022/06/21 17:46:54;;;;;;;3.80;1.45;;;24.00;1.00;;;;;;6205007;23;20016;-84
2022/06/21 17:49:29;;;;;;;3.80;1.58;;;23.90;1.00;;;;;;6220440;23;20115;-85
2022/06/21 17:52:01;;;;;;;3.08;1.30;;;23.80;1.00;;;;;;6221085;23;20058;-87
2022/06/21 23:27:52;;;;;;;3.50;2.28;;;17.70;1.00;;;;;;5925907;24;20054;-89
2022/06/21 23:39:29;;;;;;;4.75;2.75;;;17.50;1.00;;;;;;5899298;24;20078;-89
2022/06/21 23:50:31;;;;;;;4.35;2.35;;;17.40;1.00;;;;;;6009884;23;20357;-89
2022/06/21 23:53:34;;;;;;;7.32;2.55;;;17.40;1.00;;;;;;5968564;23;20052;-87
2022/06/21 23:56:32;;;;;;;2.75;2.30;;;17.40;1.00;;;;;;5986475;23;20035;-89
